Time;durP1;ratioP1;P1;durP2;ratioP2;P2;SDS_P1;SDS_P2;PMS_P1;PMS_P2;Temp;Humidity;BMP_temperature;BMP_pressure;BME280_temperature;BME280_humidity;BME280_pressure;Samples;Min_cycle;Max_cycle;Signal;HPM_P1;HPM_P2
2022/10/19 00:01:26;;;;;;;25.70;11.63;;;;;;;5.25;88.34;101904.37;1894802;75;21061;-53
2022/10/19 00:03:56;;;;;;;35.92;13.93;;;;;;;5.23;88.17;101901.76;1893243;75;21046;-55
2022/10/19 00:06:27;;;;;;;31.57;13.60;;;;;;;5.22;88.24;101899.17;1895335;75;21530;-50
2022/10/19 00:08:58;;;;;;;31.80;15.23;;;;;;;5.19;88.23;101881.74;1868291;74;21049;-53
2022/10/19 00:11:28;;;;;;;28.75;15.20;;;;;;;5.17;88.13;101878.27;1863337;76;21140;-51
2022/10/19 00:13:58;;;;;;;33.42;15.08;;;;;;;5.15;88.03;101877.39;1909678;74;21012;-52
2022/10/19 00:16:30;;;;;;;29.63;14.38;;;;;;;5.12;88.01;101881.73;1927949;74;21086;-53
2022/10/19 00:19:01;;;;;;;28.32;13.05;;;;;;;5.06;88.04;101882.59;1927994;74;21483;-53
2022/10/19 00:21:30;;;;;;;29.85;13.08;;;;;;;5.02;87.99;101877.80;1928002;74;21068;-53
2022/10/19 00:23:58;;;;;;;27.85;12.85;;;;;;;5.00;88.00;101876.92;1928014;74;21032;-53
2022/10/19 00:26:27;;;;;;;25.27;12.78;;;;;;;4.98;88.07;101869.53;1928297;74;21032;-52
2022/10/19 00:28:57;;;;;;;27.15;11.12;;;;;;;4.97;88.30;101873.00;1928833;74;21037;-51
2022/10/19 00:31:27;;;;;;;36.70;13.53;;;;;;;4.98;88.24;101872.55;1928064;74;21440;-54
2022/10/19 00:33:57;;;;;;;29.10;11.75;;;;;;;4.96;88.34;101863.44;1928476;74;21024;-52
2022/10/19 00:36:28;;;;;;;36.83;15.15;;;;;;;4.95;88.41;101866.91;1927993;74;21566;-51
2022/10/19 00:38:58;;;;;;;38.78;13.50;;;;;;;4.94;88.38;101876.03;1928294;74;21028;-50
2022/10/19 00:41:29;;;;;;;32.08;12.68;;;;;;;4.92;88.57;101869.50;1928782;74;21021;-51
2022/10/19 00:44:04;;;;;;;32.05;13.08;;;;;;;4.92;88.59;101859.50;1927911;74;21118;-52
2022/10/19 00:46:36;;;;;;;25.80;10.23;;;;;;;4.91;88.67;101862.55;1928665;74;21025;-56
2022/10/19 00:49:07;;;;;;;29.50;12.95;;;;;;;4.91;88.86;101861.69;1928110;74;21021;-53
2022/10/19 00:51:39;;;;;;;35.28;14.75;;;;;;;4.90;89.00;101857.32;1928052;74;21033;-53
2022/10/19 00:54:09;;;;;;;26.70;10.85;;;;;;;4.91;88.84;101851.25;1928026;74;21490;-54
2022/10/19 00:56:40;;;;;;;39.85;18.87;;;;;;;4.93;88.81;101850.81;1928377;74;21444;-54
2022/10/19 00:59:10;;;;;;;65.90;22.40;;;;;;;4.94;88.69;101845.60;1928174;74;21028;-53
2022/10/19 01:01:39;;;;;;;60.65;15.88;;;;;;;4.96;88.60;101846.47;1928117;74;21517;-53
2022/10/19 01:04:10;;;;;;;66.33;17.52;;;;;;;4.94;88.57;101839.48;1928405;74;21451;-53
2022/10/19 01:06:40;;;;;;;48.92;12.60;;;;;;;4.89;88.51;101842.11;1928177;74;20996;-53
2022/10/19 01:09:09;;;;;;;66.80;13.32;;;;;;;4.88;88.53;101835.57;1928365;74;21086;-53
2022/10/19 01:11:59;;;;;;;50.20;13.40;;;;;;;4.84;88.48;101827.73;1928708;73;21114;-56
2022/10/19 01:14:59;;;;;;;52.00;12.28;;;;;;;4.84;88.33;101821.20;1897709;74;21492;-53
2022/10/19 01:17:42;;;;;;;47.10;14.53;;;;;;;4.81;88.15;101819.02;1895682;75;21067;-53
2022/10/19 01:20:30;;;;;;;46.37;15.40;;;;;;;4.80;88.15;101808.16;1893943;75;21112;-49
2022/10/19 01:23:34;;;;;;;85.65;19.37;;;;;;;4.78;88.09;101802.94;1895125;76;21025;-53
2022/10/19 01:26:27;;;;;;;43.02;17.23;;;;;;;4.76;88.00;101807.73;1895372;75;21038;-51
2022/10/19 01:29:30;;;;;;;45.48;16.57;;;;;;;4.73;88.07;101801.19;1894716;75;21570;-51
2022/10/19 01:32:05;;;;;;;46.27;16.47;;;;;;;4.72;88.00;101798.12;1895468;75;21061;-52
2022/10/19 01:34:36;;;;;;;46.15;17.32;;;;;;;4.70;87.88;101790.73;1896253;75;21111;-52
2022/10/19 01:37:17;;;;;;;43.65;15.53;;;;;;;4.69;87.81;101785.95;1894405;75;21119;-52
2022/10/19 01:39:49;;;;;;;39.88;15.60;;;;;;;4.67;87.78;101799.84;1886959;75;21546;-52
2022/10/19 01:42:26;;;;;;;48.28;14.85;;;;;;;4.65;87.79;101799.87;1894639;75;21116;-53
2022/10/19 01:45:06;;;;;;;43.30;13.85;;;;;;;4.67;87.82;101787.70;1895695;75;21052;-54
2022/10/19 01:47:50;;;;;;;35.48;14.80;;;;;;;4.68;87.74;101776.81;1895281;75;21045;-50
2022/10/19 01:50:22;;;;;;;47.67;15.13;;;;;;;4.67;87.65;101772.45;1895950;74;21088;-52
2022/10/19 01:52:53;;;;;;;44.23;13.83;;;;;;;4.66;87.75;101778.11;1892632;75;21096;-53
2022/10/19 01:55:23;;;;;;;35.95;12.03;;;;;;;4.68;87.84;101776.37;1895237;75;21018;-52
2022/10/19 01:58:01;;;;;;;34.35;12.10;;;;;;;4.70;87.80;101778.98;1895147;75;21092;-49
2022/10/19 02:00:31;;;;;;;36.83;12.95;;;;;;;4.72;87.79;101781.17;1895381;75;21465;-52
2022/10/19 02:03:01;;;;;;;41.30;15.85;;;;;;;4.74;87.85;101789.86;1895201;75;21025;-52
2022/10/19 02:05:33;;;;;;;33.63;12.45;;;;;;;4.72;87.93;101783.36;1895726;75;21100;-53
2022/10/19 02:08:08;;;;;;;38.40;14.13;;;;;;;4.73;88.12;101777.70;1895394;75;21018;-53
2022/10/19 02:10:39;;;;;;;32.23;12.55;;;;;;;4.72;88.18;101778.15;1895332;73;21155;-52
2022/10/19 02:13:11;;;;;;;31.73;11.85;;;;;;;4.73;88.21;101773.79;1883166;76;21037;-52
2022/10/19 02:15:42;;;;;;;27.70;12.85;;;;;;;4.74;88.12;101770.30;1864027;76;21045;-52
2022/10/19 02:18:14;;;;;;;32.20;11.30;;;;;;;4.73;88.09;101760.74;1863551;76;21608;-52
2022/10/19 02:20:43;;;;;;;29.32;11.83;;;;;;;4.68;88.14;101768.98;1863047;76;21077;-51
2022/10/19 02:23:14;;;;;;;37.63;11.90;;;;;;;4.66;88.28;101770.28;1863133;76;21081;-49
2022/10/19 02:25:42;;;;;;;25.10;8.95;;;;;;;4.69;88.44;101770.75;1863035;76;21565;-53
2022/10/19 02:28:12;;;;;;;29.72;9.25;;;;;;;4.70;88.45;101763.34;1862988;76;21170;-53
2022/10/19 02:30:41;;;;;;;26.95;9.45;;;;;;;4.72;88.45;101773.34;1863295;76;21092;-53
2022/10/19 02:33:11;;;;;;;23.65;7.97;;;;;;;4.72;88.48;101762.90;1864105;76;21123;-48
2022/10/19 02:35:40;;;;;;;28.17;9.23;;;;;;;4.71;88.44;101756.82;1863043;76;21025;-51
2022/10/19 02:38:12;;;;;;;31.85;10.53;;;;;;;4.70;88.42;101752.91;1862925;76;21448;-52
2022/10/19 02:40:43;;;;;;;29.77;10.35;;;;;;;4.70;88.49;101759.42;1863890;76;21045;-52
2022/10/19 02:43:18;;;;;;;41.80;10.48;;;;;;;4.71;88.54;101751.61;1862834;76;21053;-50
2022/10/19 02:45:48;;;;;;;58.90;12.70;;;;;;;4.75;88.60;101735.52;1863883;75;21116;-53
2022/10/19 02:48:22;;;;;;;71.17;24.02;;;;;;;4.75;88.60;101735.52;1863039;75;21860;-53
2022/10/19 02:50:51;;;;;;;83.62;20.95;;;;;;;4.81;88.40;101740.73;1863351;76;21492;-50
2022/10/19 02:53:20;;;;;;;52.38;17.30;;;;;;;4.81;88.46;101744.65;1863042;76;21053;-51
2022/10/19 02:55:49;;;;;;;72.65;16.55;;;;;;;4.81;88.54;101748.56;1862953;76;21021;-53
2022/10/19 02:58:18;;;;;;;87.72;17.48;;;;;;;4.83;88.56;101752.04;1863109;76;21610;-53
2022/10/19 03:00:47;;;;;;;81.53;16.57;;;;;;;4.87;88.62;101747.70;1863058;76;21056;-53
2022/10/19 03:03:16;;;;;;;193.85;18.62;;;;;;;4.87;88.61;101740.76;1864104;76;21037;-53
2022/10/19 03:05:44;;;;;;;176.42;17.95;;;;;;;4.90;88.60;101738.58;1863450;76;21037;-53
2022/10/19 03:08:13;;;;;;;120.65;16.15;;;;;;;4.90;88.60;101738.13;1863004;76;21049;-53
2022/10/19 03:10:42;;;;;;;145.12;15.48;;;;;;;4.90;88.66;101735.52;1862947;76;21557;-53
2022/10/19 03:13:11;;;;;;;117.45;16.57;;;;;;;4.89;88.72;101731.19;1876167;76;21153;-53
2022/10/19 03:15:40;;;;;;;74.15;13.38;;;;;;;4.89;88.71;101725.08;1895605;75;21049;-54
2022/10/19 03:18:08;;;;;;;75.65;16.05;;;;;;;4.90;88.65;101730.30;1894948;76;21123;-52
2022/10/19 03:20:37;;;;;;;73.40;17.30;;;;;;;4.90;88.76;101729.00;1895040;75;21010;-49
2022/10/19 03:23:06;;;;;;;50.28;16.30;;;;;;;4.87;88.84;101722.49;1894982;75;21071;-51
2022/10/19 03:25:35;;;;;;;44.25;17.77;;;;;;;4.89;88.78;101727.27;1895664;75;21135;-52
2022/10/19 03:28:04;;;;;;;30.80;12.45;;;;;;;4.90;88.66;101727.69;1895454;75;21013;-52
2022/10/19 03:30:33;;;;;;;41.50;11.25;;;;;;;4.91;88.57;101720.31;1897284;74;21084;-52
2022/10/19 03:33:02;;;;;;;38.02;9.65;;;;;;;4.91;88.51;101716.40;1929268;73;21030;-53
2022/10/19 03:35:30;;;;;;;52.43;14.90;;;;;;;4.87;88.79;101713.36;1927884;74;21140;-53
2022/10/19 03:37:59;;;;;;;77.45;16.42;;;;;;;4.86;88.67;101710.30;1927971;74;21054;-52
2022/10/19 03:40:28;;;;;;;36.90;15.90;;;;;;;4.82;88.67;101695.52;1927854;74;21071;-53
2022/10/19 03:42:56;;;;;;;52.05;15.00;;;;;;;4.80;88.64;101682.47;1928133;74;21033;-52
2022/10/19 03:45:25;;;;;;;94.58;17.60;;;;;;;4.82;88.59;101689.00;1927977;74;21097;-53
2022/10/19 03:47:54;;;;;;;47.48;13.83;;;;;;;4.80;88.56;101677.25;1928113;74;21091;-53
2022/10/19 03:50:23;;;;;;;104.00;16.55;;;;;;;4.78;88.56;101674.22;1927054;73;21170;-52
2022/10/19 03:52:51;;;;;;;147.87;23.75;;;;;;;4.78;88.54;101672.91;1895040;75;21033;-51
2022/10/19 03:55:20;;;;;;;84.40;19.20;;;;;;;4.77;88.54;101677.68;1895162;75;21127;-54
2022/10/19 03:57:49;;;;;;;57.55;17.12;;;;;;;4.76;88.57;101678.13;1894900;75;21490;-53
2022/10/19 04:00:18;;;;;;;38.63;10.80;;;;;;;4.77;88.48;101660.27;1895440;74;21595;-52
2022/10/19 04:02:47;;;;;;;79.60;10.58;;;;;;;4.75;88.47;101659.86;1895131;75;21046;-53
2022/10/19 04:05:16;;;;;;;54.90;9.68;;;;;;;4.73;88.45;101661.59;1895331;75;21119;-52
2022/10/19 04:07:45;;;;;;;34.95;9.78;;;;;;;4.71;88.48;101660.73;1895259;75;21037;-53
2022/10/19 04:10:14;;;;;;;34.40;8.50;;;;;;;4.73;88.47;101656.38;1895439;75;21150;-51
2022/10/19 04:12:42;;;;;;;47.05;7.62;;;;;;;4.77;88.38;101646.38;1903931;74;21076;-51
2022/10/19 04:15:11;;;;;;;32.35;7.95;;;;;;;4.81;88.32;101644.19;1910929;75;21127;-52
2022/10/19 04:17:40;;;;;;;64.05;9.13;;;;;;;4.87;88.29;101650.72;1911128;75;21115;-49
2022/10/19 04:20:09;;;;;;;27.42;7.87;;;;;;;4.91;88.35;101661.59;1911079;75;21033;-50
2022/10/19 04:22:38;;;;;;;29.15;7.78;;;;;;;4.95;88.42;101652.88;1911315;75;21037;-51
2022/10/19 04:25:10;;;;;;;55.88;8.15;;;;;;;4.98;88.42;101648.97;1911220;75;21126;-53
2022/10/19 04:27:39;;;;;;;20.90;7.03;;;;;;;5.01;88.46;101650.25;1911073;73;21049;-52
2022/10/19 04:30:08;;;;;;;30.85;6.42;;;;;;;5.09;88.44;101655.89;1911146;75;21061;-49
2022/10/19 04:32:37;;;;;;;34.03;6.90;;;;;;;5.16;88.41;101645.88;1911279;75;21045;-51
2022/10/19 04:35:06;;;;;;;23.52;5.30;;;;;;;5.21;88.38;101655.44;1911125;75;21065;-48
2022/10/19 04:37:35;;;;;;;22.55;6.60;;;;;;;5.28;88.35;101643.25;1911277;75;21021;-48
2022/10/19 04:40:04;;;;;;;52.23;7.08;;;;;;;5.39;88.36;101644.53;1912136;74;21052;-53
2022/10/19 04:42:33;;;;;;;17.48;5.30;;;;;;;5.51;88.30;101638.38;1911273;75;21076;-53
2022/10/19 04:45:02;;;;;;;27.22;5.60;;;;;;;5.61;88.25;101633.56;1911191;75;21182;-49
2022/10/19 04:47:30;;;;;;;34.85;5.42;;;;;;;5.73;88.20;101628.27;1911218;75;21044;-53
2022/10/19 04:49:59;;;;;;;20.12;5.30;;;;;;;5.85;88.18;101631.27;1911220;75;21092;-53
2022/10/19 04:52:28;;;;;;;33.18;10.15;;;;;;;5.96;88.13;101632.56;1911395;75;21053;-51
2022/10/19 04:54:57;;;;;;;31.97;9.85;;;;;;;6.04;88.07;101635.98;1911226;75;21103;-52
2022/10/19 04:57:25;;;;;;;15.78;6.92;;;;;;;6.08;88.02;101635.08;1911164;75;21036;-50
2022/10/19 04:59:54;;;;;;;32.42;9.03;;;;;;;6.12;88.01;101636.83;1911213;75;21053;-50
2022/10/19 05:02:23;;;;;;;42.93;8.55;;;;;;;6.24;87.96;101618.86;1911150;75;21084;-53
2022/10/19 05:04:52;;;;;;;34.33;7.03;;;;;;;6.30;87.85;101622.73;1911269;75;21126;-52
2022/10/19 05:07:21;;;;;;;55.63;8.53;;;;;;;6.38;87.82;101616.13;1911127;75;21120;-50
2022/10/19 05:09:49;;;;;;;78.57;9.48;;;;;;;6.47;87.83;101612.58;1911220;75;21111;-52
2022/10/19 05:12:18;;;;;;;46.10;9.03;;;;;;;6.54;87.77;101615.12;1910919;74;21130;-53
2022/10/19 05:14:47;;;;;;;116.65;9.78;;;;;;;6.68;87.69;101608.94;1895609;75;21504;-52
2022/10/19 05:17:16;;;;;;;203.58;13.48;;;;;;;6.77;87.65;101612.78;1895282;76;21041;-50
2022/10/19 05:19:45;;;;;;;84.45;7.65;;;;;;;6.79;87.52;101609.70;1895480;75;21069;-52
2022/10/19 05:22:14;;;;;;;47.85;9.40;;;;;;;6.82;87.44;101610.95;1895910;75;21093;-53
2022/10/19 05:24:42;;;;;;;76.28;10.32;;;;;;;6.91;87.40;101610.87;1877295;74;21134;-53
2022/10/19 05:27:11;;;;;;;40.17;7.60;;;;;;;7.10;87.31;101610.68;1915198;73;21129;-50
2022/10/19 05:29:40;;;;;;;40.88;7.35;;;;;;;7.33;87.19;101609.13;1919430;73;21018;-52
2022/10/19 05:32:08;;;;;;;19.35;5.20;;;;;;;7.63;87.05;101597.84;1922293;74;21125;-53
2022/10/19 05:34:37;;;;;;;116.77;8.13;;;;;;;7.95;86.90;101605.70;1916358;74;21168;-53
2022/10/19 05:37:06;;;;;;;75.57;6.28;;;;;;;8.20;86.77;101598.34;1909269;75;21106;-53
2022/10/19 05:39:35;;;;;;;27.10;6.83;;;;;;;8.50;86.59;101597.01;1909256;75;21052;-52
2022/10/19 05:42:04;;;;;;;36.13;6.12;;;;;;;8.75;86.59;101597.47;1901345;75;21083;-52
2022/10/19 05:44:33;;;;;;;27.13;5.65;;;;;;;9.08;86.41;101597.75;1895328;75;21049;-50
2022/10/19 05:47:01;;;;;;;24.32;6.12;;;;;;;9.46;86.21;101591.73;1895352;75;21045;-53
2022/10/19 05:49:30;;;;;;;31.12;5.33;;;;;;;9.88;86.10;101583.38;1895165;76;21018;-57
2022/10/19 05:51:59;;;;;;;19.60;5.67;;;;;;;10.34;85.78;101580.55;1895040;76;21481;-59
2022/10/19 05:54:28;;;;;;;24.27;6.75;;;;;;;11.13;85.30;101579.37;1900209;74;21028;-58
2022/10/19 05:56:57;;;;;;;25.35;6.30;;;;;;;11.59;84.37;101575.40;1917622;73;21116;-60
2022/10/19 05:59:25;;;;;;;19.48;5.95;;;;;;;11.75;83.63;101573.64;1909247;74;21121;-59
2022/10/19 06:01:54;;;;;;;12.82;4.87;;;;;;;12.19;82.83;101575.37;1915938;74;21053;-60
2022/10/19 06:04:23;;;;;;;11.30;4.22;;;;;;;12.83;81.77;101563.05;1922342;74;21046;-58
2022/10/19 06:06:52;;;;;;;21.12;4.30;;;;;;;13.55;80.54;101566.66;1911521;74;21169;-55
2022/10/19 06:09:20;;;;;;;21.37;4.58;;;;;;;14.41;78.87;101557.91;1921704;73;21100;-55
2022/10/19 06:11:49;;;;;;;17.10;3.85;;;;;;;15.44;76.60;101546.30;1925753;73;20998;-57
2022/10/19 06:14:18;;;;;;;10.70;4.10;;;;;;;16.09;74.27;101537.92;1918892;74;21125;-55
2022/10/19 06:16:47;;;;;;;9.78;3.40;;;;;;;16.68;72.45;101526.52;1913357;75;21460;-55
2022/10/19 06:19:16;;;;;;;10.75;3.12;;;;;;;17.22;70.56;101523.68;1907753;74;21464;-53
2022/10/19 06:21:45;;;;;;;14.33;3.50;;;;;;;17.71;70.45;101522.30;1913047;75;21147;-54
2022/10/19 06:24:13;;;;;;;12.15;3.60;;;;;;;18.29;69.52;101511.89;1913080;75;21053;-54
2022/10/19 06:26:42;;;;;;;16.62;4.17;;;;;;;18.95;68.17;101519.94;1912982;75;21104;-54
2022/10/19 06:29:11;;;;;;;9.75;4.70;;;;;;;19.46;66.93;101511.42;1912995;75;21131;-55
2022/10/19 06:31:40;;;;;;;6.40;3.98;;;;;;;19.95;66.19;101510.89;1913056;75;21049;-55
2022/10/19 06:34:08;;;;;;;12.58;5.70;;;;;;;20.27;64.77;101505.23;1913040;75;21033;-54
2022/10/19 06:36:37;;;;;;;9.03;3.55;;;;;;;20.56;64.23;101500.53;1892120;74;21561;-54
2022/10/19 06:39:06;;;;;;;6.12;3.12;;;;;;;21.00;63.48;101495.25;1878645;76;21524;-53
2022/10/19 06:41:35;;;;;;;10.25;3.25;;;;;;;21.31;62.66;101493.55;1878440;75;21078;-55
2022/10/19 06:44:09;;;;;;;7.47;2.90;;;;;;;21.74;62.08;101487.23;1875873;76;21043;-53
2022/10/19 06:46:39;;;;;;;7.78;3.25;;;;;;;22.17;61.47;101483.17;1886291;74;21459;-55
2022/10/19 06:49:12;;;;;;;8.35;2.70;;;;;;;22.63;60.32;101464.88;1878932;76;21474;-56
2022/10/19 06:51:41;;;;;;;12.10;3.83;;;;;;;23.04;59.24;101464.78;1878566;76;21023;-58
2022/10/19 06:54:10;;;;;;;5.33;2.92;;;;;;;23.33;58.88;101470.95;1879776;75;21075;-59
2022/10/19 06:56:38;;;;;;;8.00;2.77;;;;;;;23.61;57.94;101465.98;1879110;76;21016;-57
2022/10/19 06:59:07;;;;;;;5.90;3.05;;;;;;;23.67;57.38;101459.63;1879008;76;21137;-57
2022/10/19 07:01:36;;;;;;;4.30;2.37;;;;;;;23.98;57.08;101452.21;1879319;76;21149;-58
2022/10/19 07:04:05;;;;;;;5.33;2.65;;;;;;;24.17;56.33;101452.83;1878887;76;21098;-58
2022/10/19 07:06:34;;;;;;;5.20;2.25;;;;;;;24.15;55.11;101451.62;1860013;76;21519;-58
2022/10/19 07:09:03;;;;;;;4.33;2.27;;;;;;;24.50;55.07;101444.19;1878524;76;21025;-59
2022/10/19 07:11:32;;;;;;;4.55;2.60;;;;;;;24.84;54.25;101434.01;1878790;76;21049;-60
2022/10/19 07:14:00;;;;;;;7.85;2.40;;;;;;;25.14;53.37;101424.16;1865042;75;21068;-58
2022/10/19 07:16:29;;;;;;;4.47;2.83;;;;;;;25.56;52.71;101426.67;1862904;77;21080;-59
2022/10/19 07:19:00;;;;;;;5.12;2.40;;;;;;;25.92;51.86;101420.22;1880770;76;21488;-59
2022/10/19 07:21:29;;;;;;;7.00;2.58;;;;;;;26.07;50.87;101420.14;1893243;76;21104;-59
2022/10/19 07:23:57;;;;;;;4.22;2.47;;;;;;;26.30;50.35;101403.61;1873152;76;21115;-57
2022/10/19 07:26:29;;;;;;;4.05;2.27;;;;;;;26.47;49.73;101407.41;1862990;77;21085;-57
2022/10/19 07:28:58;;;;;;;6.90;2.58;;;;;;;26.49;48.53;101393.27;1862845;77;21111;-58
2022/10/19 07:31:28;;;;;;;6.80;2.72;;;;;;;26.30;47.66;101394.16;1886887;74;21125;-48
2022/10/19 07:33:59;;;;;;;4.78;3.00;;;;;;;26.35;48.13;101387.83;1891166;76;21476;-49
2022/10/19 07:36:30;;;;;;;5.95;2.98;;;;;;;26.39;47.35;101385.17;1888318;75;21025;-49
2022/10/19 07:39:00;;;;;;;5.37;3.17;;;;;;;26.29;46.96;101383.03;1862936;77;21104;-54
2022/10/19 07:41:29;;;;;;;6.15;3.17;;;;;;;26.37;46.88;101375.03;1882031;75;21024;-55
2022/10/19 07:43:58;;;;;;;6.75;3.80;;;;;;;26.34;46.24;101369.95;1876181;76;21245;-55
2022/10/19 07:46:32;;;;;;;8.50;4.47;;;;;;;26.40;45.97;101363.95;1895103;76;21517;-56
2022/10/19 07:49:00;;;;;;;12.85;6.35;;;;;;;26.63;45.35;101364.42;1895237;75;21500;-54
2022/10/19 07:51:29;;;;;;;13.28;5.97;;;;;;;26.83;45.31;101358.42;1895099;76;21545;-55
2022/10/19 07:54:01;;;;;;;11.03;5.87;;;;;;;26.97;45.01;101357.07;1878411;76;21073;-52
2022/10/19 07:56:31;;;;;;;11.70;5.58;;;;;;;27.02;44.98;101352.55;1862989;77;21147;-48
2022/10/19 07:59:01;;;;;;;13.75;6.37;;;;;;;27.36;44.44;101346.51;1862996;77;21593;-52
2022/10/19 08:01:33;;;;;;;10.35;5.65;;;;;;;27.76;44.00;101351.41;1874887;76;21036;-54
2022/10/19 08:04:02;;;;;;;13.08;5.60;;;;;;;27.95;43.84;101346.31;1894342;76;21022;-54
2022/10/19 08:06:30;;;;;;;17.62;7.22;;;;;;;28.45;43.53;101337.44;1894778;76;21049;-55
2022/10/19 08:08:59;;;;;;;15.30;6.50;;;;;;;28.67;43.05;101343.32;1887845;76;21053;-55
2022/10/19 08:11:33;;;;;;;13.93;6.78;;;;;;;28.75;42.81;101336.56;1879286;76;21056;-55
2022/10/19 08:14:04;;;;;;;18.10;7.00;;;;;;;29.08;42.47;101331.22;1892677;76;21123;-52
2022/10/19 08:16:37;;;;;;;14.70;6.28;;;;;;;29.19;42.11;101317.37;1882743;76;21093;-54
2022/10/19 08:19:10;;;;;;;19.07;6.53;;;;;;;29.47;41.71;101325.17;1875722;74;21146;-50
2022/10/19 08:21:40;;;;;;;9.65;4.55;;;;;;;29.67;41.50;101319.41;1886832;76;21038;-48
2022/10/19 08:24:10;;;;;;;12.73;5.55;;;;;;;29.70;41.10;101310.41;1892104;76;21456;-52
2022/10/19 08:26:40;;;;;;;11.70;5.92;;;;;;;29.74;40.52;101304.17;1863038;77;21440;-49
2022/10/19 08:29:17;;;;;;;12.40;5.30;;;;;;;29.78;40.34;101300.08;1883653;74;21486;-53
2022/10/19 08:31:47;;;;;;;13.22;5.45;;;;;;;29.88;40.33;101297.16;1907252;74;21551;-52
2022/10/19 08:34:16;;;;;;;11.53;6.12;;;;;;;30.02;39.98;101293.22;1875425;76;21160;-55
2022/10/19 08:36:46;;;;;;;12.80;5.35;;;;;;;30.08;39.79;101283.53;1891776;76;21018;-56
2022/10/19 08:39:16;;;;;;;11.65;5.60;;;;;;;29.93;39.57;101282.05;1895198;76;21065;-50
2022/10/19 08:41:51;;;;;;;12.75;5.40;;;;;;;29.90;39.65;101283.78;1895265;76;21111;-52
2022/10/19 08:44:50;;;;;;;10.75;5.17;;;;;;;29.96;39.45;101282.23;1895160;76;21601;-50
2022/10/19 08:47:36;;;;;;;12.45;5.20;;;;;;;30.17;39.32;101277.05;1887740;75;21065;-53
2022/10/19 08:50:20;;;;;;;11.55;5.33;;;;;;;30.63;38.82;101276.34;1907315;74;20988;-52
2022/10/19 08:52:51;;;;;;;11.53;4.70;;;;;;;30.78;38.49;101277.30;1886421;75;21102;-53
2022/10/19 08:55:23;;;;;;;12.05;5.37;;;;;;;30.77;38.52;101266.08;1878069;76;21564;-49
2022/10/19 08:57:57;;;;;;;12.55;5.60;;;;;;;30.61;38.30;101260.73;1930007;74;21527;-54
2022/10/19 09:00:44;;;;;;;14.28;6.62;;;;;;;30.71;38.16;101251.86;1934552;74;21073;-49
2022/10/19 09:03:38;;;;;;;8.53;4.25;;;;;;;30.64;37.97;101245.45;1934888;74;21575;-48
2022/10/19 09:06:21;;;;;;;6.10;3.62;;;;;;;30.46;37.90;101244.88;1934838;72;21163;-47
2022/10/19 09:08:51;;;;;;;7.30;3.72;;;;;;;30.49;37.83;101240.42;1915986;73;21014;-50
2022/10/19 09:11:24;;;;;;;9.48;3.92;;;;;;;30.46;37.22;101229.94;1884958;73;21111;-55
2022/10/19 09:13:56;;;;;;;6.58;4.08;;;;;;;30.32;37.64;101230.13;1890330;74;21033;-47
2022/10/19 09:16:26;;;;;;;7.22;4.28;;;;;;;30.10;37.61;101222.27;1869720;74;21077;-48
2022/10/19 09:18:54;;;;;;;7.45;4.10;;;;;;;30.02;37.95;101223.98;1890421;76;21049;-52
2022/10/19 09:21:44;;;;;;;11.43;5.80;;;;;;;29.88;38.07;101222.03;1894825;76;21484;-52
2022/10/19 09:24:45;;;;;;;9.15;4.30;;;;;;;29.92;38.16;101219.30;1892835;75;21049;-52
2022/10/19 09:27:22;;;;;;;11.00;4.50;;;;;;;30.01;37.97;101208.73;1871778;76;21512;-54
2022/10/19 09:29:56;;;;;;;8.83;4.33;;;;;;;30.18;37.94;101207.30;1864549;76;21037;-52
2022/10/19 09:32:28;;;;;;;6.83;3.62;;;;;;;30.45;38.14;101195.63;1894472;75;21124;-50
2022/10/19 09:35:01;;;;;;;6.97;3.95;;;;;;;30.43;38.03;101189.01;1892599;75;21077;-49
2022/10/19 09:37:31;;;;;;;7.30;3.45;;;;;;;30.07;37.75;101190.05;1895293;76;21429;-51
2022/10/19 09:40:00;;;;;;;7.42;3.90;;;;;;;29.86;38.08;101179.26;1895107;76;21037;-50
2022/10/19 09:42:31;;;;;;;10.20;4.55;;;;;;;29.57;38.10;101171.73;1894960;76;21135;-50
2022/10/19 09:45:03;;;;;;;5.80;3.62;;;;;;;29.55;38.30;101169.19;1892856;76;21045;-48
2022/10/19 09:47:40;;;;;;;8.68;4.20;;;;;;;29.63;38.43;101169.14;1889548;75;21469;-50
2022/10/19 09:50:20;;;;;;;6.70;3.15;;;;;;;29.45;38.47;101161.73;1873198;76;21119;-51
2022/10/19 09:52:54;;;;;;;5.97;3.08;;;;;;;29.43;38.82;101158.36;1869328;76;21049;-51
2022/10/19 09:55:31;;;;;;;7.90;4.08;;;;;;;29.44;38.61;101154.64;1868667;76;21500;-47
2022/10/19 09:58:06;;;;;;;10.23;5.80;;;;;;;29.47;38.65;101148.84;1895098;76;21127;-52
2022/10/19 10:00:38;;;;;;;7.62;4.00;;;;;;;29.42;38.77;101143.95;1891061;75;21073;-51
2022/10/19 10:03:07;;;;;;;9.23;3.50;;;;;;;29.39;38.85;101137.52;1895047;76;21061;-51
2022/10/19 10:05:38;;;;;;;5.33;3.42;;;;;;;29.40;38.81;101130.21;1895103;75;21547;-49
2022/10/19 10:08:19;;;;;;;11.15;5.80;;;;;;;29.22;39.12;101129.94;1880728;75;21159;-50
2022/10/19 10:11:08;;;;;;;10.08;4.25;;;;;;;29.35;39.15;101121.78;1863007;77;21041;-53
2022/10/19 10:13:40;;;;;;;11.35;3.83;;;;;;;29.54;38.83;101120.00;1862933;76;21080;-49
2022/10/19 10:16:12;;;;;;;6.42;3.62;;;;;;;29.42;39.02;101113.28;1865043;76;21115;-47
2022/10/19 10:18:49;;;;;;;5.80;3.87;;;;;;;29.38;39.25;101111.92;1894107;74;21033;-47
2022/10/19 10:21:30;;;;;;;7.60;3.70;;;;;;;29.42;39.08;101102.44;1902717;73;21121;-45
2022/10/19 10:24:12;;;;;;;6.60;4.00;;;;;;;29.44;38.88;101096.32;1878469;76;21558;-51
2022/10/19 10:26:43;;;;;;;17.27;4.10;;;;;;;29.49;38.97;101095.26;1898895;75;21134;-45
2022/10/19 10:29:24;;;;;;;7.97;3.30;;;;;;;29.67;38.96;101080.62;1891371;75;21452;-50
2022/10/19 10:32:14;;;;;;;7.75;3.60;;;;;;;29.75;38.95;101081.46;1910538;73;21111;-47
2022/10/19 10:34:49;;;;;;;6.20;3.40;;;;;;;29.69;38.84;101086.70;1900129;75;21147;-46
2022/10/19 10:37:23;;;;;;;7.17;3.75;;;;;;;29.66;38.85;101074.35;1879020;75;21165;-48
2022/10/19 10:39:57;;;;;;;6.53;3.80;;;;;;;29.56;39.10;101071.00;1889777;75;21099;-48
2022/10/19 10:42:34;;;;;;;6.47;3.42;;;;;;;29.48;39.17;101066.45;1909012;75;21021;-50
2022/10/19 10:45:04;;;;;;;6.58;3.05;;;;;;;29.30;38.96;101063.14;1910220;75;21511;-51
2022/10/19 10:47:33;;;;;;;8.23;3.47;;;;;;;29.56;39.11;101047.42;1910847;75;21045;-47
2022/10/19 10:50:05;;;;;;;10.72;3.62;;;;;;;29.46;39.24;101041.38;1892973;75;21045;-50
2022/10/19 10:52:35;;;;;;;14.07;4.92;;;;;;;29.38;39.29;101040.05;1898015;75;21076;-52
2022/10/19 10:55:13;;;;;;;11.60;3.62;;;;;;;29.25;39.69;101033.82;1878736;76;21553;-48
2022/10/19 10:57:44;;;;;;;9.80;3.87;;;;;;;29.42;39.60;101029.20;1906671;75;21829;-48
2022/10/19 11:00:19;;;;;;;11.57;4.03;;;;;;;29.40;39.74;101026.66;1911094;75;21549;-48
2022/10/19 11:03:00;;;;;;;11.35;4.17;;;;;;;29.44;39.72;101024.44;1911083;73;21091;-48
2022/10/19 11:05:35;;;;;;;11.18;5.15;;;;;;;29.71;39.60;101014.11;1910602;75;21147;-47
2022/10/19 11:08:21;;;;;;;9.98;5.53;;;;;;;29.69;39.67;101008.02;1907554;75;21531;-48
2022/10/19 11:11:05;;;;;;;6.17;3.25;;;;;;;29.60;40.02;101006.72;1878800;76;21044;-51
2022/10/19 11:13:40;;;;;;;11.57;4.78;;;;;;;29.56;40.16;101005.36;1902579;75;21534;-50
2022/10/19 11:16:21;;;;;;;10.25;5.20;;;;;;;29.42;40.45;101003.44;1892955;74;21181;-47
2022/10/19 11:18:58;;;;;;;14.40;6.90;;;;;;;29.27;40.77;100997.88;1910082;74;21061;-51
2022/10/19 11:21:30;;;;;;;11.65;5.15;;;;;;;29.24;41.18;100996.37;1908266;75;21508;-51
2022/10/19 11:24:02;;;;;;;7.00;4.20;;;;;;;29.22;41.36;101005.20;1909422;73;21108;-49
2022/10/19 11:26:42;;;;;;;7.00;3.33;;;;;;;29.19;41.54;100996.05;1890343;75;21049;-51
2022/10/19 11:29:20;;;;;;;8.50;4.05;;;;;;;29.03;41.79;100997.44;1909354;75;21107;-51
2022/10/19 11:31:54;;;;;;;6.80;4.03;;;;;;;28.81;42.02;101000.38;1909619;73;21045;-48
2022/10/19 11:34:38;;;;;;;7.60;3.80;;;;;;;28.47;42.51;100995.50;1886111;75;21060;-49
2022/10/19 11:37:09;;;;;;;9.98;4.00;;;;;;;27.93;43.09;100992.48;1907270;75;21049;-48
2022/10/19 11:39:41;;;;;;;7.90;4.00;;;;;;;27.42;44.03;100989.78;1893744;75;21537;-50
2022/10/19 11:42:28;;;;;;;5.92;3.22;;;;;;;26.77;45.03;100993.02;1880529;75;21052;-49